Time;durP1;ratioP1;P1;durP2;ratioP2;P2;SDS_P1;SDS_P2;PMS_P1;PMS_P2;Temp;Humidity;BMP_temperature;BMP_pressure;BME280_temperature;BME280_humidity;BME280_pressure;Samples;Min_cycle;Max_cycle;Signal;HPM_P1;HPM_P2
2022/12/02 00:00:18;;;;;;;48.10;22.87;;;4.10;99.90;;;;;;5001599;28;20478;-85
2022/12/02 00:02:45;;;;;;;38.77;19.67;;;4.00;99.90;;;;;;5001793;28;20465;-85
2022/12/02 00:05:27;;;;;;;28.50;14.40;;;4.00;99.90;;;;;;5002118;28;20465;-84
2022/12/02 00:07:57;;;;;;;38.23;20.23;;;4.00;99.90;;;;;;5002839;28;20454;-85
2022/12/02 00:10:26;;;;;;;24.77;13.57;;;4.00;99.90;;;;;;5001974;28;20474;-84
2022/12/02 00:12:55;;;;;;;44.47;18.70;;;4.00;99.90;;;;;;5001185;28;20461;-85
2022/12/02 00:15:41;;;;;;;45.97;18.57;;;4.00;99.90;;;;;;5001869;28;20454;-85
2022/12/02 00:18:09;;;;;;;40.70;20.23;;;4.00;99.90;;;;;;5001892;28;20521;-85
2022/12/02 00:20:36;;;;;;;50.30;21.20;;;3.90;99.90;;;;;;5001633;28;20496;-85
2022/12/02 00:23:03;;;;;;;46.17;22.00;;;3.90;99.90;;;;;;5001783;28;20458;-84
2022/12/02 00:25:30;;;;;;;44.40;22.40;;;3.90;99.90;;;;;;5002080;28;20856;-85
2022/12/02 00:27:58;;;;;;;44.23;22.77;;;3.90;99.90;;;;;;5001079;28;20458;-85
2022/12/02 00:30:25;;;;;;;49.30;21.60;;;3.90;99.90;;;;;;5001609;28;20482;-85
2022/12/02 00:32:53;;;;;;;44.50;21.33;;;3.90;99.90;;;;;;5001511;28;20458;-85
2022/12/02 00:35:19;;;;;;;45.43;24.90;;;3.90;99.90;;;;;;5001776;28;20841;-85
2022/12/02 00:37:46;;;;;;;44.13;22.03;;;3.90;99.90;;;;;;5001425;28;20480;-85
2022/12/02 00:40:13;;;;;;;56.90;26.00;;;3.80;99.90;;;;;;5024522;23;20499;-79
2022/12/02 00:42:40;;;;;;;54.03;24.63;;;3.80;99.90;;;;;;5034632;28;20452;-82
2022/12/02 00:47:54;;;;;;;30.57;14.63;;;3.90;99.90;;;;;;5034824;28;20431;-81
2022/12/02 00:50:21;;;;;;;53.67;24.53;;;3.80;99.90;;;;;;5026215;28;20469;-81
2022/12/02 00:52:47;;;;;;;46.60;23.67;;;3.80;99.90;;;;;;5014895;28;20449;-81
2022/12/02 00:55:14;;;;;;;48.07;21.03;;;3.80;99.90;;;;;;5014833;28;20978;-81
2022/12/02 00:57:41;;;;;;;49.40;25.53;;;3.90;99.90;;;;;;5014635;28;20481;-81
2022/12/02 01:00:11;;;;;;;43.40;20.67;;;3.80;99.90;;;;;;5014752;28;20500;-81
2022/12/02 01:02:38;;;;;;;55.17;26.43;;;3.80;99.90;;;;;;5014728;28;20437;-81
2022/12/02 01:05:06;;;;;;;55.77;24.80;;;3.80;99.90;;;;;;5013604;28;20488;-81
2022/12/02 01:07:33;;;;;;;57.90;26.83;;;3.80;99.90;;;;;;5014873;28;20456;-81
2022/12/02 01:09:59;;;;;;;61.30;27.97;;;3.80;99.90;;;;;;5014608;28;20473;-81
2022/12/02 01:12:26;;;;;;;62.40;26.70;;;3.80;99.90;;;;;;5014617;28;20457;-81
2022/12/02 01:14:53;;;;;;;54.30;25.83;;;3.70;99.90;;;;;;5014424;28;20464;-79
2022/12/02 01:17:21;;;;;;;51.83;25.90;;;3.80;99.90;;;;;;5014500;28;20481;-81
2022/12/02 01:19:47;;;;;;;52.70;25.47;;;3.70;99.90;;;;;;5014591;28;20858;-81
2022/12/02 01:22:14;;;;;;;50.90;25.57;;;3.70;99.90;;;;;;5013966;28;20541;-81
2022/12/02 01:24:41;;;;;;;53.50;27.60;;;3.70;99.90;;;;;;5014344;28;20457;-81
2022/12/02 01:27:07;;;;;;;39.03;22.03;;;3.70;99.90;;;;;;5014372;28;20465;-81
2022/12/02 01:29:34;;;;;;;56.67;26.30;;;3.70;99.90;;;;;;5014022;28;20465;-81
2022/12/02 01:32:01;;;;;;;45.63;24.53;;;3.70;99.90;;;;;;5013905;28;20452;-81
2022/12/02 01:34:29;;;;;;;59.47;28.23;;;3.70;99.90;;;;;;5014170;28;20479;-81
2022/12/02 01:36:56;;;;;;;47.63;24.07;;;3.70;99.90;;;;;;5014243;28;20457;-81
2022/12/02 01:39:22;;;;;;;64.27;28.23;;;3.70;99.90;;;;;;5013674;28;20487;-80
2022/12/02 01:41:49;;;;;;;49.43;24.80;;;3.70;99.90;;;;;;5013925;28;20457;-80
2022/12/02 01:44:16;;;;;;;52.20;23.20;;;3.70;99.90;;;;;;5013950;28;20464;-81
2022/12/02 01:46:43;;;;;;;55.80;26.37;;;3.70;99.90;;;;;;5014191;28;20454;-81
2022/12/02 01:49:10;;;;;;;54.17;30.87;;;3.70;99.90;;;;;;5013972;28;20461;-81
2022/12/02 01:51:38;;;;;;;43.90;22.97;;;3.70;99.90;;;;;;5013743;28;20480;-81
2022/12/02 01:54:05;;;;;;;38.03;19.27;;;3.70;99.90;;;;;;5013995;28;20453;-81
2022/12/02 01:56:32;;;;;;;60.77;25.97;;;3.70;99.90;;;;;;5013552;28;20457;-81
2022/12/02 01:58:59;;;;;;;66.27;29.63;;;3.60;99.90;;;;;;5013760;28;20473;-81
2022/12/02 02:01:27;;;;;;;55.43;27.77;;;3.60;99.90;;;;;;5013458;28;20477;-81
2022/12/02 02:03:54;;;;;;;52.10;27.70;;;3.60;99.90;;;;;;5013749;28;20464;-81
2022/12/02 02:06:22;;;;;;;41.80;21.23;;;3.70;99.90;;;;;;5013746;28;20966;-81
2022/12/02 02:08:50;;;;;;;44.23;22.27;;;3.60;99.90;;;;;;5013801;28;20460;-81
2022/12/02 02:11:17;;;;;;;53.43;23.50;;;3.60;99.90;;;;;;5012907;28;20473;-80
2022/12/02 02:13:44;;;;;;;42.80;20.97;;;3.60;99.90;;;;;;5013292;28;20453;-81
2022/12/02 02:16:12;;;;;;;36.80;17.00;;;3.60;99.90;;;;;;5013045;28;20847;-81
2022/12/02 02:18:39;;;;;;;46.50;21.83;;;3.60;99.90;;;;;;5013442;28;20854;-81
2022/12/02 02:21:10;;;;;;;33.50;18.13;;;3.60;99.90;;;;;;5012974;28;20477;-81
2022/12/02 02:23:38;;;;;;;41.87;21.63;;;3.60;99.90;;;;;;5013496;28;20441;-81
2022/12/02 02:26:05;;;;;;;49.47;20.50;;;3.60;99.90;;;;;;5013884;28;20472;-81
2022/12/02 02:28:33;;;;;;;54.70;22.40;;;3.50;99.90;;;;;;5013607;28;20461;-81
2022/12/02 02:31:00;;;;;;;52.40;24.07;;;3.50;99.90;;;;;;5013239;28;20997;-81
2022/12/02 02:33:31;;;;;;;44.63;21.47;;;3.60;99.90;;;;;;5013449;28;20460;-81
2022/12/02 02:35:58;;;;;;;44.27;21.63;;;3.60;99.90;;;;;;5013597;28;20954;-81
2022/12/02 02:38:27;;;;;;;50.27;21.63;;;3.70;99.90;;;;;;5013052;28;20511;-81
2022/12/02 02:40:56;;;;;;;39.93;20.03;;;3.70;99.90;;;;;;5013067;28;20492;-81
2022/12/02 02:43:26;;;;;;;55.30;23.23;;;3.60;99.90;;;;;;5013208;28;20457;-81
2022/12/02 02:45:54;;;;;;;34.10;17.93;;;3.60;99.90;;;;;;5013323;28;20461;-81
2022/12/02 02:48:22;;;;;;;33.77;16.30;;;3.60;99.90;;;;;;5012919;28;20445;-81
2022/12/02 02:50:50;;;;;;;28.03;15.30;;;3.60;99.90;;;;;;5013061;28;20473;-81
2022/12/02 02:53:19;;;;;;;29.97;14.60;;;3.60;99.90;;;;;;5013597;28;20491;-81
2022/12/02 02:55:45;;;;;;;47.43;21.83;;;3.60;99.90;;;;;;5013340;28;20464;-81
2022/12/02 02:58:19;;;;;;;46.53;21.93;;;3.60;99.90;;;;;;5013261;28;20485;-81
2022/12/02 03:00:50;;;;;;;56.27;24.43;;;3.60;99.90;;;;;;5012979;28;20469;-81
2022/12/02 03:03:20;;;;;;;50.27;22.20;;;3.60;99.90;;;;;;5013474;28;20453;-81
2022/12/02 03:05:47;;;;;;;47.43;23.00;;;3.70;99.90;;;;;;5013523;28;20511;-81
2022/12/02 03:08:15;;;;;;;39.80;19.40;;;3.70;99.90;;;;;;5012986;28;20457;-81
2022/12/02 03:10:42;;;;;;;44.90;23.00;;;3.60;99.90;;;;;;5012364;28;20992;-81
2022/12/02 03:13:09;;;;;;;39.33;18.90;;;3.70;99.90;;;;;;5013006;28;20460;-81
2022/12/02 03:15:37;;;;;;;52.53;23.73;;;3.70;99.90;;;;;;5013150;28;20464;-80
2022/12/02 03:18:04;;;;;;;45.13;22.13;;;3.70;99.90;;;;;;5012771;28;20481;-81
2022/12/02 03:20:31;;;;;;;43.43;18.20;;;3.60;99.90;;;;;;5012687;28;20480;-81
2022/12/02 03:22:58;;;;;;;48.23;21.77;;;3.60;99.90;;;;;;5012902;28;20472;-81
2022/12/02 03:25:24;;;;;;;49.30;21.37;;;3.60;99.90;;;;;;5012889;28;20464;-81
2022/12/02 03:27:51;;;;;;;63.83;21.47;;;3.60;99.90;;;;;;5014065;28;20452;-81
2022/12/02 03:30:18;;;;;;;44.27;21.07;;;3.60;99.90;;;;;;5015874;28;20496;-79
2022/12/02 03:32:47;;;;;;;43.97;21.60;;;3.70;99.90;;;;;;5016893;28;20461;-82
2022/12/02 03:35:14;;;;;;;47.63;21.80;;;3.60;99.90;;;;;;5016268;28;20934;-81
2022/12/02 03:37:41;;;;;;;42.20;20.47;;;3.60;99.90;;;;;;5016376;28;20830;-81
2022/12/02 03:40:08;;;;;;;60.77;24.87;;;3.70;99.90;;;;;;5015601;28;20489;-81
2022/12/02 03:42:35;;;;;;;43.20;21.87;;;3.70;99.90;;;;;;5015965;28;20464;-82
2022/12/02 03:45:03;;;;;;;43.67;21.90;;;3.70;99.90;;;;;;5016379;28;20811;-81
2022/12/02 03:47:30;;;;;;;47.33;21.77;;;3.70;99.90;;;;;;5016282;28;20461;-81
2022/12/02 03:49:59;;;;;;;47.27;22.80;;;3.70;99.90;;;;;;5016308;28;20845;-81
2022/12/02 03:52:27;;;;;;;34.43;18.37;;;3.70;99.90;;;;;;5015999;28;20464;-81
2022/12/02 03:54:54;;;;;;;43.70;21.40;;;3.70;99.90;;;;;;5015574;28;20460;-81
2022/12/02 03:57:21;;;;;;;44.33;18.90;;;3.70;99.90;;;;;;5015636;28;20840;-81
2022/12/02 03:59:48;;;;;;;40.40;18.93;;;3.70;99.90;;;;;;5016169;28;20481;-81
2022/12/02 04:02:14;;;;;;;41.50;20.10;;;3.70;99.90;;;;;;5016130;28;20842;-80
2022/12/02 04:04:41;;;;;;;46.40;21.20;;;3.60;99.90;;;;;;5015986;28;20457;-81
2022/12/02 04:07:09;;;;;;;39.67;20.20;;;3.60;99.90;;;;;;5015908;28;20826;-81
2022/12/02 04:09:36;;;;;;;47.83;22.30;;;3.70;99.90;;;;;;5015801;28;20529;-81
2022/12/02 04:12:02;;;;;;;45.07;20.50;;;3.70;99.90;;;;;;5015632;28;20533;-81
2022/12/02 04:14:29;;;;;;;47.53;22.73;;;3.70;99.90;;;;;;5015981;28;20476;-81
2022/12/02 04:16:56;;;;;;;41.00;20.00;;;3.70;99.90;;;;;;5015494;28;20938;-81
2022/12/02 04:19:23;;;;;;;46.10;24.80;;;3.70;99.90;;;;;;5015676;28;20484;-79
2022/12/02 04:21:49;;;;;;;43.90;24.60;;;3.70;99.90;;;;;;5016032;28;20464;-81
2022/12/02 04:24:17;;;;;;;44.03;21.07;;;3.70;99.90;;;;;;5015388;28;20453;-81
2022/12/02 04:26:44;;;;;;;44.13;21.83;;;3.70;99.90;;;;;;5015886;28;20831;-81
2022/12/02 04:29:11;;;;;;;48.97;20.90;;;3.70;99.90;;;;;;5015647;28;20453;-81
2022/12/02 04:31:37;;;;;;;44.80;19.40;;;3.70;99.90;;;;;;5015437;28;20481;-81
2022/12/02 04:34:04;;;;;;;40.53;20.90;;;3.60;99.90;;;;;;5015284;28;20984;-81
2022/12/02 04:36:31;;;;;;;35.10;18.70;;;3.70;99.90;;;;;;5015404;28;20458;-81
2022/12/02 04:38:57;;;;;;;19.90;12.10;;;3.70;99.90;;;;;;5014403;28;20488;-81
2022/12/02 04:41:25;;;;;;;47.63;22.10;;;3.60;99.90;;;;;;5014945;28;20489;-81
2022/12/02 04:43:52;;;;;;;40.33;18.80;;;3.60;99.90;;;;;;5015407;28;20453;-81
2022/12/02 04:46:19;;;;;;;58.70;23.63;;;3.60;99.90;;;;;;5015280;28;20457;-81
2022/12/02 04:48:46;;;;;;;41.50;18.70;;;3.70;99.90;;;;;;5014971;28;20525;-81
2022/12/02 04:51:12;;;;;;;26.70;15.03;;;3.60;99.90;;;;;;5014940;28;20473;-81
2022/12/02 04:53:39;;;;;;;21.13;11.53;;;3.60;99.90;;;;;;5014922;28;20460;-82
2022/12/02 04:56:06;;;;;;;29.87;12.07;;;3.60;99.90;;;;;;5015070;28;20457;-81
2022/12/02 04:58:34;;;;;;;29.83;13.83;;;3.60;99.90;;;;;;5015463;28;20477;-81
2022/12/02 05:01:01;;;;;;;38.97;18.20;;;3.60;99.90;;;;;;5014873;28;20480;-81
2022/12/02 05:03:27;;;;;;;43.70;19.07;;;3.70;99.90;;;;;;5015120;28;20462;-81
2022/12/02 05:05:54;;;;;;;51.13;20.10;;;3.60;99.90;;;;;;5014422;28;20830;-81
2022/12/02 05:08:21;;;;;;;35.37;15.97;;;3.60;99.90;;;;;;5014951;28;20453;-81
2022/12/02 05:10:47;;;;;;;31.43;17.97;;;3.60;99.90;;;;;;5014667;28;20842;-81
2022/12/02 05:13:14;;;;;;;52.07;20.83;;;3.60;99.90;;;;;;5014551;28;20457;-81
2022/12/02 05:15:42;;;;;;;45.67;20.27;;;3.60;99.90;;;;;;5014568;28;20461;-81
2022/12/02 05:18:09;;;;;;;45.40;21.83;;;3.60;99.90;;;;;;5014814;28;20953;-81
2022/12/02 05:20:35;;;;;;;42.80;21.33;;;3.60;99.90;;;;;;5014783;28;20484;-81
2022/12/02 05:23:03;;;;;;;44.43;19.17;;;3.70;99.90;;;;;;5014196;28;20456;-81
2022/12/02 05:25:29;;;;;;;35.53;17.03;;;3.60;99.90;;;;;;5014531;28;20457;-81
2022/12/02 05:27:56;;;;;;;56.50;23.40;;;3.60;99.90;;;;;;5014815;28;20465;-81
2022/12/02 05:30:23;;;;;;;52.13;25.20;;;3.50;99.90;;;;;;5015099;28;20496;-79
2022/12/02 05:32:51;;;;;;;51.73;24.17;;;3.60;99.90;;;;;;5014906;28;20453;-81
2022/12/02 05:35:18;;;;;;;56.83;23.20;;;3.60;99.90;;;;;;5014030;28;21019;-81
2022/12/02 05:37:45;;;;;;;52.50;24.30;;;3.60;99.90;;;;;;5014921;28;20968;-81
2022/12/02 05:40:12;;;;;;;59.80;27.27;;;3.70;99.90;;;;;;5013896;28;20485;-81
2022/12/02 05:42:40;;;;;;;54.33;29.30;;;3.60;99.90;;;;;;5014477;28;20457;-81
2022/12/02 05:45:14;;;;;;;34.43;20.47;;;3.70;99.90;;;;;;5014063;28;20528;-81
2022/12/02 05:47:41;;;;;;;56.93;31.17;;;3.70;99.90;;;;;;5014218;28;20460;-81
2022/12/02 05:50:13;;;;;;;56.20;29.37;;;3.60;99.90;;;;;;5013227;28;20473;-81
2022/12/02 05:52:40;;;;;;;50.10;29.90;;;3.70;99.90;;;;;;5013916;28;20460;-81
2022/12/02 05:55:13;;;;;;;60.47;32.97;;;3.70;99.90;;;;;;5014523;28;20457;-81
2022/12/02 05:57:40;;;;;;;57.63;34.40;;;3.70;99.90;;;;;;5014740;28;20453;-81
2022/12/02 06:00:15;;;;;;;63.03;33.60;;;3.70;99.90;;;;;;5013733;28;20486;-81
2022/12/02 06:02:45;;;;;;;65.67;39.53;;;3.70;99.90;;;;;;5014454;28;20511;-81
2022/12/02 06:05:21;;;;;;;58.73;38.10;;;3.70;99.90;;;;;;5014170;28;20453;-81
2022/12/02 06:07:51;;;;;;;52.47;31.70;;;3.70;99.90;;;;;;5013686;28;20441;-81
2022/12/02 06:10:23;;;;;;;51.20;27.83;;;3.80;99.90;;;;;;5013186;28;20469;-79
2022/12/02 06:12:52;;;;;;;51.87;26.50;;;3.60;99.90;;;;;;5013441;28;20464;-81
2022/12/02 06:15:21;;;;;;;52.60;25.77;;;3.70;99.90;;;;;;5014676;28;20457;-81
2022/12/02 06:17:48;;;;;;;46.17;24.17;;;3.70;99.90;;;;;;5015659;28;20457;-81
2022/12/02 06:20:24;;;;;;;50.53;24.13;;;3.70;99.90;;;;;;5017706;28;20473;-80
2022/12/02 06:22:50;;;;;;;57.23;24.67;;;3.70;99.90;;;;;;5017706;28;20449;-80
2022/12/02 06:25:24;;;;;;;53.50;27.37;;;3.80;99.90;;;;;;5016394;28;20489;-80
2022/12/02 06:27:56;;;;;;;56.50;31.23;;;3.70;99.90;;;;;;5016278;28;20492;-80
2022/12/02 06:30:23;;;;;;;44.13;24.67;;;3.70;99.90;;;;;;5014797;28;20917;-80
2022/12/02 06:32:55;;;;;;;48.60;29.67;;;3.80;99.90;;;;;;5015221;28;20476;-80
2022/12/02 06:35:26;;;;;;;58.90;27.57;;;3.70;99.90;;;;;;5016616;28;20446;-81
2022/12/02 06:37:57;;;;;;;54.23;29.50;;;3.70;99.90;;;;;;5016742;28;20461;-81
2022/12/02 06:40:26;;;;;;;54.27;27.40;;;3.70;99.90;;;;;;5015911;28;20495;-80
2022/12/02 06:42:53;;;;;;;54.60;28.50;;;3.70;99.90;;;;;;5015646;28;20691;-80
2022/12/02 06:45:23;;;;;;;54.73;29.40;;;3.70;99.90;;;;;;5015458;28;20464;-80
2022/12/02 06:48:02;;;;;;;46.83;25.10;;;3.70;99.90;;;;;;5015495;28;20544;-81
2022/12/02 06:50:34;;;;;;;48.20;20.10;;;3.70;99.90;;;;;;5014272;28;20480;-81
2022/12/02 06:53:23;;;;;;;54.90;26.20;;;3.70;99.90;;;;;;5014349;28;20456;-80
2022/12/02 06:55:52;;;;;;;44.27;29.27;;;3.80;99.90;;;;;;5016143;28;20461;-80
2022/12/02 06:58:32;;;;;;;57.03;31.40;;;3.70;99.90;;;;;;5017249;28;20480;-80
2022/12/02 07:01:23;;;;;;;47.67;31.87;;;3.80;99.90;;;;;;5016567;28;20488;-81
2022/12/02 07:04:03;;;;;;;61.83;29.30;;;3.80;99.90;;;;;;5021429;28;20475;-81
2022/12/02 07:06:32;;;;;;;53.77;32.90;;;3.70;99.90;;;;;;5020922;28;20449;-80
2022/12/02 07:09:02;;;;;;;57.03;37.67;;;3.70;99.90;;;;;;4997279;28;20453;-80
2022/12/02 07:11:52;;;;;;;57.80;32.97;;;3.80;99.90;;;;;;4997346;28;20474;-80
2022/12/02 07:14:32;;;;;;;57.57;31.03;;;3.70;99.90;;;;;;4997852;28;20454;-80
2022/12/02 07:17:02;;;;;;;56.63;33.20;;;3.80;99.90;;;;;;4997645;28;20485;-81
2022/12/02 07:19:38;;;;;;;47.30;24.20;;;3.80;99.90;;;;;;4999641;28;20484;-81
2022/12/02 07:22:15;;;;;;;57.40;30.47;;;3.70;99.90;;;;;;5017205;28;20453;-81
2022/12/02 07:24:44;;;;;;;38.70;23.23;;;3.70;99.90;;;;;;5018286;28;20456;-81
2022/12/02 07:27:20;;;;;;;55.37;29.23;;;3.80;99.90;;;;;;5019281;28;20459;-81
2022/12/02 07:29:50;;;;;;;56.00;29.90;;;3.70;99.90;;;;;;5019867;28;21006;-81
2022/12/02 07:32:17;;;;;;;67.10;27.70;;;3.90;99.90;;;;;;5017838;28;20457;-81
2022/12/02 07:34:44;;;;;;;45.60;25.90;;;3.90;99.90;;;;;;5017838;28;20468;-81
2022/12/02 07:37:12;;;;;;;57.63;26.87;;;3.80;99.90;;;;;;5018743;28;20457;-81
2022/12/02 07:39:39;;;;;;;52.87;26.43;;;3.80;99.90;;;;;;5018857;28;20477;-81
2022/12/02 07:42:06;;;;;;;57.70;26.70;;;3.80;99.90;;;;;;5017727;28;20453;-78
2022/12/02 07:44:32;;;;;;;56.47;31.07;;;3.80;99.90;;;;;;5018304;28;20811;-81
2022/12/02 07:47:03;;;;;;;53.23;31.17;;;3.90;99.90;;;;;;5017821;28;21584;-80
2022/12/02 07:49:29;;;;;;;28.30;17.97;;;3.80;99.90;;;;;;5018208;28;20525;-81
2022/12/02 07:51:56;;;;;;;43.50;24.30;;;3.80;99.90;;;;;;5017341;28;20468;-81
2022/12/02 07:54:24;;;;;;;55.33;30.47;;;3.80;99.90;;;;;;5018014;28;20452;-80
2022/12/02 07:56:51;;;;;;;54.57;31.23;;;3.80;99.90;;;;;;5017178;28;20456;-81
2022/12/02 07:59:18;;;;;;;58.47;33.87;;;3.80;99.90;;;;;;5017731;28;20996;-79
2022/12/02 08:01:45;;;;;;;31.30;23.23;;;3.80;99.90;;;;;;5018434;28;20487;-81
2022/12/02 08:04:13;;;;;;;61.93;36.60;;;3.80;99.90;;;;;;5018226;28;20461;-82
2022/12/02 08:06:40;;;;;;;69.10;43.70;;;3.80;99.90;;;;;;5018882;28;20544;-81
2022/12/02 08:09:07;;;;;;;65.70;42.17;;;3.80;99.90;;;;;;5018480;28;20464;-80
2022/12/02 08:11:36;;;;;;;72.77;48.37;;;3.80;99.90;;;;;;5016548;28;20480;-81
2022/12/02 08:14:03;;;;;;;78.30;55.40;;;3.80;99.90;;;;;;5016640;28;20460;-80
2022/12/02 08:16:32;;;;;;;65.10;43.40;;;3.90;99.90;;;;;;5017705;28;20458;-81
2022/12/02 08:18:59;;;;;;;76.97;44.10;;;3.80;99.90;;;;;;5017091;28;20807;-81
2022/12/02 08:21:26;;;;;;;66.30;46.27;;;3.90;99.90;;;;;;5017003;28;20703;-81
2022/12/02 08:23:53;;;;;;;87.93;51.30;;;3.80;99.90;;;;;;5017560;28;20464;-81
2022/12/02 08:26:19;;;;;;;71.50;41.33;;;3.90;99.90;;;;;;5017581;28;20461;-81
2022/12/02 08:28:48;;;;;;;65.37;54.67;;;3.90;99.90;;;;;;5018775;28;20893;-81
2022/12/02 08:31:14;;;;;;;67.20;56.60;;;3.90;99.90;;;;;;5018825;28;20516;-81
2022/12/02 08:33:41;;;;;;;76.60;56.03;;;3.90;99.90;;;;;;5018255;28;20535;-81
2022/12/02 08:36:09;;;;;;;62.00;50.77;;;3.90;99.90;;;;;;5017932;28;20516;-80
2022/12/02 08:38:35;;;;;;;61.00;46.13;;;3.90;99.90;;;;;;5017455;28;20468;-81
2022/12/02 08:41:07;;;;;;;64.43;47.97;;;3.90;99.90;;;;;;5017620;28;20481;-81
2022/12/02 08:43:33;;;;;;;73.30;45.13;;;3.90;99.90;;;;;;5018220;28;20485;-81
2022/12/02 08:46:02;;;;;;;61.30;48.93;;;3.90;99.90;;;;;;5018412;28;20518;-80
2022/12/02 08:48:28;;;;;;;75.03;47.23;;;4.00;99.90;;;;;;5018212;28;20520;-81
2022/12/02 08:50:55;;;;;;;64.33;47.63;;;3.90;99.90;;;;;;5015529;28;20472;-81
2022/12/02 08:53:22;;;;;;;70.10;51.43;;;4.00;99.90;;;;;;5016894;28;20453;-80
2022/12/02 08:55:49;;;;;;;71.73;54.87;;;4.00;99.90;;;;;;5017430;28;20464;-80
2022/12/02 08:58:16;;;;;;;78.70;54.23;;;4.00;99.90;;;;;;5017163;28;20460;-80
2022/12/02 09:00:43;;;;;;;88.67;56.37;;;4.00;99.90;;;;;;5017918;28;20920;-81
2022/12/02 09:03:12;;;;;;;47.73;42.70;;;4.00;99.90;;;;;;5018540;28;20457;-80
2022/12/02 09:05:40;;;;;;;52.47;38.87;;;4.10;99.90;;;;;;5018468;28;20527;-81
2022/12/02 09:08:09;;;;;;;66.40;44.30;;;4.10;99.90;;;;;;5018672;28;20511;-81
2022/12/02 09:10:36;;;;;;;66.23;46.97;;;4.20;99.90;;;;;;5018695;28;20475;-80
2022/12/02 09:13:03;;;;;;;61.23;48.93;;;4.10;99.90;;;;;;5018989;28;20834;-81
2022/12/02 09:15:29;;;;;;;58.00;46.00;;;4.20;99.90;;;;;;5018088;28;20461;-80
2022/12/02 09:17:58;;;;;;;67.50;39.90;;;4.30;99.90;;;;;;5017034;28;20460;-80
2022/12/02 09:20:26;;;;;;;70.90;45.87;;;4.20;99.90;;;;;;5016284;28;20562;-80
2022/12/02 09:23:00;;;;;;;58.30;35.30;;;4.20;99.90;;;;;;5017800;28;20946;-79
2022/12/02 09:25:27;;;;;;;48.60;37.17;;;4.20;99.90;;;;;;5017383;28;20909;-80
2022/12/02 09:27:54;;;;;;;61.10;35.70;;;4.20;99.90;;;;;;5018602;28;20453;-80
2022/12/02 09:30:21;;;;;;;62.53;40.97;;;4.10;99.90;;;;;;5018082;28;20497;-80
2022/12/02 09:32:48;;;;;;;55.40;46.70;;;4.10;99.90;;;;;;5018381;28;20821;-80
2022/12/02 09:35:15;;;;;;;63.70;54.87;;;4.00;99.90;;;;;;5018105;28;20492;-78
2022/12/02 09:37:43;;;;;;;59.53;53.00;;;4.10;99.90;;;;;;5017347;28;20544;-80
2022/12/02 09:40:11;;;;;;;70.20;46.60;;;4.10;99.90;;;;;;5017469;28;20491;-78
2022/12/02 09:42:38;;;;;;;71.50;52.50;;;4.10;99.90;;;;;;5017834;28;20457;-80
2022/12/02 09:45:05;;;;;;;55.77;49.27;;;4.10;99.90;;;;;;5016523;28;20457;-80
2022/12/02 09:47:32;;;;;;;63.73;49.17;;;4.20;99.90;;;;;;5017271;28;20464;-80
2022/12/02 09:49:59;;;;;;;60.95;45.15;;;4.20;99.90;;;;;;5016708;28;20461;-81
2022/12/02 09:52:28;;;;;;;59.77;41.17;;;4.20;99.90;;;;;;5017136;28;20194;-81
2022/12/02 09:54:58;;;;;;;55.53;43.80;;;4.10;99.90;;;;;;5018008;28;20461;-78
2022/12/02 09:57:28;;;;;;;65.47;39.93;;;4.20;99.90;;;;;;5017355;28;20457;-80
2022/12/02 09:59:56;;;;;;;58.93;35.37;;;4.10;99.90;;;;;;5017883;28;20532;-80
2022/12/02 10:02:28;;;;;;;64.10;39.53;;;4.20;99.90;;;;;;5009519;28;20454;-80
2022/12/02 10:04:56;;;;;;;49.00;32.47;;;4.20;99.90;;;;;;4997393;28;20466;-81
2022/12/02 10:07:23;;;;;;;59.47;30.20;;;4.20;99.90;;;;;;4996626;28;20460;-81
2022/12/02 10:09:49;;;;;;;52.93;30.57;;;4.20;99.90;;;;;;4997653;28;20478;-80
2022/12/02 10:12:18;;;;;;;53.27;27.67;;;4.20;99.90;;;;;;4996596;28;20486;-80
2022/12/02 10:14:49;;;;;;;48.90;32.10;;;4.20;99.90;;;;;;4997808;28;20488;-80
2022/12/02 10:17:18;;;;;;;57.07;35.83;;;4.20;99.90;;;;;;4997079;28;20458;-80
2022/12/02 10:19:46;;;;;;;56.30;34.67;;;4.20;99.90;;;;;;4997770;28;20474;-81
2022/12/02 10:22:15;;;;;;;57.20;34.40;;;4.20;99.90;;;;;;4996566;28;20454;-78
2022/12/02 10:24:42;;;;;;;52.87;31.90;;;4.20;99.90;;;;;;4996731;28;20454;-80
2022/12/02 10:27:22;;;;;;;45.90;26.20;;;4.30;99.90;;;;;;4997254;28;20458;-80
2022/12/02 10:29:50;;;;;;;52.23;32.90;;;4.20;99.90;;;;;;4997065;28;20477;-79
2022/12/02 10:32:20;;;;;;;65.00;28.57;;;4.20;99.90;;;;;;4996924;28;20460;-80
2022/12/02 10:35:02;;;;;;;61.30;30.40;;;4.30;99.90;;;;;;4997617;28;20462;-81
2022/12/02 10:37:28;;;;;;;51.33;30.43;;;4.30;99.90;;;;;;4999841;28;20457;-81
2022/12/02 10:40:09;;;;;;;49.40;26.23;;;4.30;99.90;;;;;;5001026;28;20481;-81
2022/12/02 10:42:36;;;;;;;53.87;27.73;;;4.40;99.90;;;;;;5000618;28;20450;-80
2022/12/02 10:45:19;;;;;;;47.93;28.30;;;4.40;99.90;;;;;;5000778;28;20456;-81
2022/12/02 10:47:46;;;;;;;47.30;24.97;;;4.40;99.90;;;;;;5000014;28;20446;-80
2022/12/02 10:50:19;;;;;;;47.43;28.00;;;4.40;99.90;;;;;;4999561;28;20469;-81
2022/12/02 10:52:48;;;;;;;30.57;17.63;;;4.40;99.90;;;;;;4999387;28;20473;-81
2022/12/02 10:55:17;;;;;;;42.50;21.37;;;4.40;99.90;;;;;;4999366;28;20465;-81
2022/12/02 10:57:44;;;;;;;44.03;23.27;;;4.40;99.90;;;;;;4999968;28;20469;-79
2022/12/02 11:00:18;;;;;;;37.03;21.23;;;4.20;99.90;;;;;;5000243;28;20494;-81
2022/12/02 11:02:47;;;;;;;52.93;26.20;;;4.30;99.90;;;;;;4999105;28;20457;-79
2022/12/02 11:05:17;;;;;;;24.47;15.50;;;4.30;99.90;;;;;;4998533;28;20803;-80
2022/12/02 11:07:52;;;;;;;45.37;22.03;;;4.30;99.90;;;;;;5020174;23;20485;-80
2022/12/02 11:10:21;;;;;;;39.63;18.40;;;4.30;99.90;;;;;;5025645;28;56903;-80
2022/12/02 11:15:42;;;;;;;40.60;20.77;;;4.40;99.90;;;;;;5519181;22;20531;-80
2022/12/02 11:18:10;;;;;;;35.20;21.13;;;4.40;99.90;;;;;;5019130;28;20463;-80
2022/12/02 11:20:40;;;;;;;38.53;21.17;;;4.40;99.90;;;;;;5017899;28;20507;-82
2022/12/02 11:23:26;;;;;;;45.27;21.97;;;4.50;99.90;;;;;;5020187;28;20457;-81
2022/12/02 11:26:08;;;;;;;42.87;20.90;;;4.50;99.90;;;;;;5019598;28;20530;-81
2022/12/02 11:29:15;;;;;;;40.97;21.73;;;4.60;99.90;;;;;;5042934;23;20475;-84
2022/12/02 11:32:00;;;;;;;33.73;18.87;;;4.40;99.90;;;;;;5020206;28;20449;-85
2022/12/02 11:34:41;;;;;;;40.00;21.20;;;4.50;99.90;;;;;;5021702;28;20456;-85
2022/12/02 11:37:47;;;;;;;44.67;18.03;;;4.40;99.90;;;;;;5021927;28;20448;-86
2022/12/02 11:40:57;;;;;;;31.97;13.87;;;4.40;99.90;;;;;;5022077;28;20473;-85
2022/12/02 11:43:53;;;;;;;34.63;21.60;;;4.40;99.90;;;;;;5022045;28;20453;-85
2022/12/02 11:46:21;;;;;;;39.87;19.70;;;4.50;99.90;;;;;;5021317;28;20482;-85
2022/12/02 11:48:52;;;;;;;35.10;18.23;;;4.40;99.90;;;;;;5019976;28;20477;-85
2022/12/02 11:51:33;;;;;;;34.50;19.80;;;4.60;99.90;;;;;;5017602;28;20456;-84
2022/12/02 11:54:00;;;;;;;30.73;17.93;;;4.60;99.90;;;;;;5022614;28;20468;-86
2022/12/02 11:56:37;;;;;;;42.90;23.53;;;4.50;99.90;;;;;;5024799;28;20449;-86
2022/12/02 11:59:05;;;;;;;31.97;17.93;;;4.70;99.90;;;;;;5021625;28;20970;-85
2022/12/02 12:01:32;;;;;;;28.57;18.57;;;4.80;99.90;;;;;;5018362;28;20789;-84
2022/12/02 12:04:00;;;;;;;36.57;16.80;;;4.70;99.90;;;;;;5018430;28;20453;-84
2022/12/02 12:06:30;;;;;;;34.37;19.60;;;4.70;99.90;;;;;;5018125;28;21078;-85
2022/12/02 12:08:57;;;;;;;36.70;17.83;;;4.80;99.90;;;;;;5018387;28;20507;-85
2022/12/02 12:11:27;;;;;;;24.20;13.13;;;4.80;99.90;;;;;;5016549;28;20461;-84
2022/12/02 12:14:05;;;;;;;31.50;16.63;;;4.90;99.90;;;;;;5017296;28;20468;-84
2022/12/02 12:16:34;;;;;;;31.87;17.30;;;4.80;99.90;;;;;;5018841;28;20535;-85
2022/12/02 12:19:03;;;;;;;31.73;18.60;;;4.80;99.90;;;;;;5018447;28;20468;-86
2022/12/02 12:21:44;;;;;;;36.27;19.20;;;4.80;99.90;;;;;;5019075;28;20447;-85
2022/12/02 12:24:32;;;;;;;38.73;19.30;;;4.90;99.90;;;;;;5020055;28;20485;-85
2022/12/02 12:27:10;;;;;;;28.37;17.20;;;4.70;99.90;;;;;;5019941;28;20510;-85
2022/12/02 12:29:38;;;;;;;31.00;17.33;;;4.60;99.90;;;;;;5020642;28;20480;-85
2022/12/02 12:32:06;;;;;;;36.70;19.90;;;4.60;99.90;;;;;;5020353;28;20453;-86
2022/12/02 12:34:34;;;;;;;39.87;20.47;;;4.70;99.90;;;;;;5020256;28;20453;-85
2022/12/02 12:37:01;;;;;;;34.80;19.07;;;4.60;99.90;;;;;;5021237;28;20453;-85
2022/12/02 12:39:28;;;;;;;38.23;20.23;;;4.50;99.90;;;;;;5020322;28;20473;-85
2022/12/02 12:41:56;;;;;;;35.87;19.13;;;4.50;99.90;;;;;;5019812;28;20866;-85
2022/12/02 12:44:26;;;;;;;40.27;22.90;;;4.50;99.90;;;;;;5020557;28;20461;-85
2022/12/02 12:46:56;;;;;;;32.87;17.67;;;4.40;99.90;;;;;;5020282;28;20450;-85
2022/12/02 12:49:22;;;;;;;35.50;18.00;;;4.40;99.90;;;;;;5020434;28;20481;-85
2022/12/02 12:55:27;;;;;;;39.83;20.23;;;4.80;99.90;;;;;;5019988;28;20448;-85